Latest Weather Observations for Singleton (Defence)

IDN60801

Issued at 5:32 am EST Tuesday 22 August 2017 (issued every 30 minutes, with the page automatically refreshed every 10 minutes)

About weather observations | Map of weather stations | Latest weather observations for NSW | Other Formats
Station Details ID: 061430 Name: SINGLETON (DEFENCE) Lat: -32.70 Lon: 151.16 Height: 125.0 m
Data from the previous 72 hours. | See also: Recent months for locations in New South Wales
Date/Time
EST
Temp
°C
App
Temp
°C
Dew
Point
°C
Rel
Hum
%
Delta-T
°C
Wind Press
QNH
hPa
Press
MSL
hPa
Rain since
9am
mm
Dir  Spd
km/h
Gust
km/h
Spd
kts
Gust
kts
22/05:30am 7.9 5.2 2.6 69 2.2 SSW 6 9 3 5 - - 0.0
22/05:00am 8.3 5.9 1.9 64 2.7 SSW 4 6 2 3 - - 0.0
22/04:30am 9.0 6.6 2.1 62 2.9 SSW 4 6 2 3 - - 0.0
22/04:00am 9.2 6.8 1.9 60 3.1 SSW 4 6 2 3 - - 0.0
22/03:30am 8.9 6.5 2.0 62 2.9 NW 4 7 2 4 - - 0.0
22/03:00am 9.0 6.2 2.1 62 2.9 NW 6 6 3 3 - - 0.0
22/02:30am 8.5 6.8 2.1 64 2.7 CALM 0 0 0 0 - - 0.0
22/02:00am 9.3 6.7 1.2 57 3.3 NW 4 6 2 3 - - 0.0
22/01:30am 9.7 8.0 1.6 57 3.4 CALM 0 0 0 0 - - 0.0
22/01:00am 9.7 7.7 2.1 59 3.2 NW 2 6 1 3 - - 0.0
22/12:30am 9.9 8.2 1.8 57 3.4 CALM 0 2 0 1 - - 0.0
22/12:00am 10.2 7.3 1.6 55 3.6 NW 6 6 3 3 - - 0.0
 
Date/Time
EST
Temp
°C
App
Temp
°C
Dew
Point
°C
Rel
Hum
%
Delta-T
°C
Wind Press
QNH
hPa
Press
MSL
hPa
Rain since
9am
mm
Dir  Spd
km/h
Gust
km/h
Spd
kts
Gust
kts
21/11:30pm 10.9 8.3 0.9 50 4.2 NW 4 6 2 3 - - 0.0
21/11:00pm 11.5 8.5 0.9 48 4.4 NW 6 7 3 4 - - 0.0
21/10:30pm 11.4 8.4 0.8 48 4.4 NW 6 7 3 4 - - 0.0
21/10:00pm 10.8 8.2 0.8 50 4.2 NW 4 6 2 3 - - 0.0
21/09:30pm 12.4 9.1 0.2 43 5.1 NW 7 7 4 4 - - 0.0
21/09:00pm 12.6 9.9 0.4 43 5.1 NW 4 6 2 3 - - 0.0
21/08:30pm 12.8 9.1 0.2 42 5.3 NW 9 11 5 6 - - 0.0
21/08:00pm 13.3 9.6 0.0 40 5.6 NW 9 11 5 6 - - 0.0
21/07:30pm 13.8 10.4 -0.3 38 5.9 NW 7 11 4 6 - - 0.0
21/07:00pm 14.1 10.3 -0.4 37 6.1 NW 9 11 5 6 - - 0.0
21/06:30pm 14.4 11.0 -0.8 35 6.3 NNW 7 9 4 5 - - 0.0
21/06:00pm 14.1 10.3 -1.1 35 6.3 NNW 9 11 5 6 - - 0.0
21/05:30pm 14.8 9.7 -1.7 32 6.7 NNW 15 20 8 11 - - 0.0
21/05:00pm 15.5 10.1 -1.1 32 6.9 NNW 17 22 9 12 - - 0.0
21/04:30pm 16.1 10.4 -0.6 32 7.1 NNW 19 28 10 15 - - 0.0
21/04:00pm 16.6 11.1 0.7 34 7.0 NNW 19 33 10 18 - - 0.0
21/03:30pm 16.1 10.7 1.4 37 6.5 NNW 19 28 10 15 - - 0.0
21/03:00pm 16.2 11.0 2.6 40 6.2 NNW 19 28 10 15 - - 0.0
21/02:30pm 16.8 11.4 2.4 38 6.5 NW 20 30 11 16 - - 0.0
21/02:00pm 16.4 12.8 3.1 41 6.1 NW 11 17 6 9 - - 0.0
21/01:30pm 14.8 12.3 3.6 47 5.1 NW 6 17 3 9 - - 0.0
21/01:00pm 14.3 11.8 4.9 53 4.4 NW 7 17 4 9 - - 0.0
21/12:30pm 12.7 10.4 4.7 58 3.7 NW 6 7 3 4 - - 0.0
21/12:00pm 12.4 10.5 5.1 61 3.4 NW 4 6 2 3 - - 0.0
21/11:30am 11.5 9.4 5.8 68 2.7 NW 6 7 3 4 - - 0.0
21/11:00am 10.9 8.6 5.9 71 2.3 NW 7 9 4 5 - - 0.0
21/10:30am 10.4 8.3 5.8 73 2.1 NW 6 7 3 4 - - 0.0
21/10:00am 10.1 7.8 5.7 74 2.0 NW 7 11 4 6 - - 0.0
21/09:30am 9.6 7.9 5.8 77 1.8 S 4 6 2 3 - - 0.0
21/09:00am 9.0 7.3 5.9 81 1.4 S 4 7 2 4 - - 0.0
21/08:30am 7.2 5.0 5.3 88 0.8 S 6 7 3 4 - - 0.0
21/08:00am 6.1 4.2 4.7 91 0.6 S 4 6 2 3 - - 0.0
21/07:30am 5.4 3.4 4.4 93 0.4 S 4 6 2 3 - - 0.0
21/07:00am 5.3 3.3 4.3 93 0.4 S 4 7 2 4 - - 0.0
21/06:30am 5.5 4.0 4.9 96 0.3 S 2 6 1 3 - - 0.0
21/06:00am 5.4 3.5 4.7 95 0.3 S 4 4 2 2 - - 0.0
21/05:30am 5.3 3.3 4.4 94 0.4 S 4 6 2 3 - - 0.0
21/05:00am 5.3 2.9 4.4 94 0.4 S 6 7 3 4 - - 0.0
21/04:30am 5.2 3.5 4.2 93 0.4 S 2 4 1 2 - - 0.0
21/04:00am 5.4 4.2 4.4 93 0.4 CALM 0 0 0 0 - - 0.0
21/03:30am 5.4 3.4 4.2 92 0.5 S 4 6 2 3 - - 0.0
21/03:00am 6.3 3.4 4.8 90 0.7 S 9 11 5 6 - - 0.0
21/02:30am 6.8 4.0 5.3 90 0.7 S 9 11 5 6 - - 0.0
21/02:00am 7.3 4.6 5.4 88 0.9 S 9 11 5 6 - - 0.0
21/01:30am 6.9 3.7 4.9 87 0.9 SSE 11 13 6 7 - - 0.0
21/01:00am 7.3 4.9 5.3 87 0.9 NE 7 9 4 5 - - 0.0
21/12:30am 6.9 4.7 5.1 88 0.8 NE 6 7 3 4 - - 0.0
21/12:00am 8.0 5.8 5.3 83 1.2 NE 6 7 3 4 - - 0.0
 
Date/Time
EST
Temp
°C
App
Temp
°C
Dew
Point
°C
Rel
Hum
%
Delta-T
°C
Wind Press
QNH
hPa
Press
MSL
hPa
Rain since
9am
mm
Dir  Spd
km/h
Gust
km/h
Spd
kts
Gust
kts
20/11:30pm 8.5 6.7 5.4 81 1.4 NE 4 7 2 4 - - 0.0
20/11:00pm 8.7 7.4 6.0 83 1.2 NE 2 6 1 3 - - 0.0
20/10:30pm 9.2 7.6 6.3 82 1.3 NE 4 6 2 3 - - 0.0
20/10:00pm 9.7 8.9 6.4 80 1.5 CALM 0 2 0 1 - - 0.0
20/09:30pm 9.9 9.0 6.1 77 1.8 CALM 0 0 0 0 - - 0.0
20/09:00pm 10.1 8.8 6.1 76 1.9 NE 2 4 1 2 - - 0.0
20/08:30pm 10.3 9.4 6.1 75 2.0 CALM 0 0 0 0 - - 0.0
20/08:00pm 10.6 9.0 6.2 74 2.1 NE 4 6 2 3 - - 0.0
20/07:30pm 10.9 8.9 6.1 72 2.3 NE 6 7 3 4 - - 0.0
20/07:00pm 11.5 9.2 5.6 67 2.7 NE 7 9 4 5 - - 0.0
20/06:30pm 12.4 10.3 5.6 63 3.2 E 6 7 3 4 - - 0.0
20/06:00pm 12.7 10.3 5.1 60 3.5 E 7 11 4 6 - - 0.0
20/05:30pm 13.6 11.1 5.0 56 4.0 E 7 9 4 5 - - 0.0
20/05:00pm 14.4 11.9 3.8 49 4.9 ESE 6 7 3 4 - - 0.0
20/04:30pm 14.9 11.8 3.7 47 5.1 ESE 9 13 5 7 - - 0.0
20/04:00pm 14.8 11.7 3.6 47 5.1 S 9 13 5 7 - - 0.0
20/03:30pm 14.9 10.2 3.4 46 5.3 SSE 17 22 9 12 - - 0.0
20/03:00pm 15.5 12.3 3.3 44 5.6 S 9 13 5 7 - - 0.0
20/02:30pm 15.3 11.3 3.1 44 5.6 SSE 13 17 7 9 - - 0.0
20/02:00pm 15.4 13.5 2.6 42 5.8 SE 2 11 1 6 - - 0.0
20/01:30pm 15.4 12.4 2.2 41 5.9 ESE 7 15 4 8 - - 0.0
20/01:00pm 15.9 12.5 2.0 39 6.2 WSW 9 19 5 10 - - 0.0
20/12:30pm 15.7 11.6 2.2 40 6.1 SSW 13 20 7 11 - - 0.0
20/12:00pm 15.0 10.1 2.2 42 5.7 SE 17 24 9 13 - - 0.0
20/11:30am 14.5 11.0 1.4 41 5.7 S 9 19 5 10 - - 0.0
20/11:00am 13.8 10.8 0.5 40 5.7 SSW 6 15 3 8 - - 0.0
20/10:30am 12.9 8.3 -0.7 39 5.6 W 13 20 7 11 - - 0.0
20/10:00am 11.7 8.4 -1.1 41 5.1 SSW 6 13 3 7 - - 0.0
20/09:30am 10.9 6.2 -1.8 41 5.0 SSW 13 22 7 12 - - 0.0
20/09:00am 10.4 6.0 -2.6 40 5.0 SW 11 19 6 10 - - 0.0
20/08:30am 9.7 6.2 -2.9 41 4.7 WSW 6 11 3 6 - - 0.0
20/08:00am 7.9 4.3 -1.9 50 3.7 WNW 7 11 4 6 - - 0.0
20/07:30am 6.4 2.4 -2.0 55 3.1 NW 9 13 5 7 - - 0.0
20/07:00am 4.8 0.8 -2.1 61 2.5 NW 9 9 5 5 - - 0.0
20/06:30am 4.6 1.1 -2.7 59 2.6 WSW 6 15 3 8 - - 0.0
20/06:00am 5.8 0.6 -2.8 54 3.1 WSW 15 22 8 12 - - 0.0
20/05:30am 5.3 1.0 -1.8 60 2.6 W 11 15 6 8 - - 0.0
20/05:00am 6.1 2.1 -2.2 55 3.0 W 9 13 5 7 - - 0.0
20/04:30am 5.8 1.9 -1.8 58 2.8 WNW 9 11 5 6 - - 0.0
20/04:00am 6.0 2.4 -1.9 57 2.9 WSW 7 11 4 6 - - 0.0
20/03:30am 7.2 4.9 -2.0 52 3.4 CALM 0 6 0 3 - - 0.0
20/03:00am 7.7 4.7 -1.8 51 3.6 SW 4 7 2 4 - - 0.0
20/02:30am 7.0 3.2 -0.9 57 3.0 SW 9 13 5 7 - - 0.0
20/02:00am 6.6 2.9 -0.1 62 2.6 W 9 11 5 6 - - 0.0
20/01:30am 6.7 3.0 -0.3 61 2.7 SW 9 15 5 8 - - 0.0
20/01:00am 7.1 3.4 0.1 61 2.8 W 9 13 5 7 - - 0.0
20/12:30am 8.3 5.3 1.7 63 2.7 SSW 7 11 4 6 - - 0.0
20/12:00am 8.8 5.4 1.7 61 3.0 SW 9 15 5 8 - - 0.0
 
Date/Time
EST
Temp
°C
App
Temp
°C
Dew
Point
°C
Rel
Hum
%
Delta-T
°C
Wind Press
QNH
hPa
Press
MSL
hPa
Rain since
9am
mm
Dir  Spd
km/h
Gust
km/h
Spd
kts
Gust
kts
19/11:30pm 9.3 6.3 1.9 60 3.1 WSW 7 13 4 7 - - 0.0
19/11:00pm 9.6 6.6 1.8 58 3.3 SW 7 15 4 8 - - 0.0
19/10:30pm 9.9 5.7 1.8 57 3.4 SSW 13 19 7 10 - - 0.0
19/10:00pm 9.7 6.1 0.6 53 3.7 SSW 9 17 5 9 - - 0.0
19/09:30pm 9.7 5.9 -0.8 48 4.2 SSW 9 13 5 7 - - 0.0
19/09:00pm 10.1 6.0 -0.4 48 4.2 SSW 11 15 6 8 - - 0.0
19/08:30pm 10.1 6.2 -1.3 45 4.5 S 9 13 5 7 - - 0.0
19/08:00pm 10.2 6.7 -1.5 44 4.6 S 7 9 4 5 - - 0.0
19/07:30pm 10.7 6.7 -2.0 41 4.9 S 9 9 5 5 - - 0.0
19/07:00pm 12.0 8.4 -2.2 37 5.6 SSW 7 9 4 5 - - 0.0
19/06:30pm 12.1 8.4 -2.5 36 5.7 SSW 7 15 4 8 - - 0.0
19/06:00pm 12.6 8.2 -2.4 35 5.9 SSW 11 17 6 9 - - 0.0
19/05:30pm 13.3 7.7 -3.0 32 6.4 S 17 26 9 14 - - 0.0
19/05:00pm 14.0 8.4 -2.8 31 6.6 S 17 24 9 13 - - 0.0
19/04:30pm 14.9 9.8 -2.1 31 6.9 S 15 22 8 12 - - 0.0
19/04:00pm 15.2 9.2 -2.7 29 7.2 S 19 26 10 14 - - 0.0
19/03:30pm 14.5 8.0 -2.8 30 6.9 S 22 33 12 18 - - 0.0
19/03:00pm 16.5 10.8 -3.6 25 8.0 SW 17 30 9 16 - - 0.0
19/02:30pm 15.8 9.5 -3.6 26 7.7 SW 20 32 11 17 - - 0.0
19/02:00pm 16.5 10.6 -2.5 27 7.8 SW 19 28 10 15 - - 0.0
19/01:30pm 15.9 9.8 -3.6 26 7.7 SW 19 32 10 17 - - 0.0
19/01:00pm 15.2 9.6 -3.2 28 7.3 SSW 17 30 9 16 - - 0.0
19/12:30pm 14.9 8.9 -3.0 29 7.1 SSW 19 32 10 17 - - 0.0
19/12:00pm 15.1 9.9 -2.8 29 7.2 SSW 15 24 8 13 - - 0.0
19/11:30am 14.3 7.7 -3.5 29 7.0 WSW 22 33 12 18 - - 0.0
19/11:00am 14.4 8.4 -2.9 30 6.9 SW 19 32 10 17 - - 0.0
19/10:30am 13.6 8.0 -2.8 32 6.5 SW 17 32 9 17 - - 0.0
19/10:00am 12.9 7.6 -3.4 32 6.3 SW 15 32 8 17 - - 0.0
19/09:30am 11.9 7.1 -2.3 37 5.6 WSW 13 24 7 13 - - 0.0
19/09:00am 11.5 6.5 -0.9 42 5.0 WNW 15 20 8 11 - - 0.0
19/08:30am 10.5 5.2 -0.6 46 4.5 NW 17 22 9 12 - - 0.0
19/08:00am 9.8 5.3 -0.4 49 4.1 WNW 13 20 7 11 - - 0.0
19/07:30am 8.8 4.2 -0.8 51 3.8 WNW 13 19 7 10 - - 0.0
19/07:00am 8.1 2.8 -0.9 53 3.5 W 17 26 9 14 - - 0.0
19/06:30am 8.2 1.9 -0.8 53 3.5 W 22 33 12 18 - - 0.0
19/06:00am 8.4 1.7 -0.9 52 3.6 W 24 32 13 17 - - 0.0

Other Formats:

Comma delimited format used in spreadsheet applications
http://www.bom.gov.au/fwo/IDN60801/IDN60801.99738.axf

JavaScript Object Notation format (JSON) in row-major order
http://www.bom.gov.au/fwo/IDN60801/IDN60801.99738.json